Time;durP1;ratioP1;P1;durP2;ratioP2;P2;SDS_P1;SDS_P2;PMS_P1;PMS_P2;Temp;Humidity;BMP_temperature;BMP_pressure;BME280_temperature;BME280_humidity;BME280_pressure;Samples;Min_cycle;Max_cycle;Signal;HPM_P1;HPM_P2
2023/09/12 00:00:23;;;;;;;2.80;2.60;;;22.70;99.90;;;;;;2075323;28;20033;-71
2023/09/12 00:01:24;;;;;;;2.92;2.55;;;22.70;99.90;;;;;;2074111;28;20117;-71
2023/09/12 00:02:24;;;;;;;4.70;3.10;;;22.70;99.90;;;;;;2074258;28;20030;-71
2023/09/12 00:03:25;;;;;;;3.58;3.08;;;22.70;99.90;;;;;;2075269;28;20061;-71
2023/09/12 00:04:25;;;;;;;3.42;3.00;;;22.70;99.90;;;;;;2077267;28;20087;-71
2023/09/12 00:05:26;;;;;;;3.35;3.05;;;22.60;99.90;;;;;;2076352;28;20488;-71
2023/09/12 00:06:26;;;;;;;4.70;3.38;;;22.60;99.90;;;;;;2077193;28;20028;-71
2023/09/12 00:07:27;;;;;;;5.38;3.22;;;22.60;99.90;;;;;;2077241;28;20033;-71
2023/09/12 00:08:28;;;;;;;3.88;3.47;;;22.60;99.90;;;;;;2076347;28;20144;-71
2023/09/12 00:09:29;;;;;;;3.20;2.90;;;22.60;99.90;;;;;;2076142;28;20028;-71
2023/09/12 00:10:30;;;;;;;3.17;2.88;;;22.60;99.90;;;;;;2076236;28;20033;-71
2023/09/12 00:11:30;;;;;;;3.75;3.30;;;22.60;99.90;;;;;;2076254;28;20022;-71
2023/09/12 00:12:31;;;;;;;4.40;3.35;;;22.50;99.90;;;;;;2075905;28;20037;-71
2023/09/12 00:13:32;;;;;;;4.13;3.03;;;22.50;99.90;;;;;;2076504;28;20030;-71
2023/09/12 00:14:32;;;;;;;3.08;2.78;;;22.50;99.90;;;;;;2075352;28;20036;-71
2023/09/12 00:15:33;;;;;;;3.72;3.22;;;22.60;99.90;;;;;;2075793;28;20493;-71
2023/09/12 00:16:33;;;;;;;4.13;3.00;;;22.50;99.90;;;;;;2075722;28;20515;-71
2023/09/12 00:17:34;;;;;;;2.97;2.78;;;22.50;99.90;;;;;;2075523;28;20765;-71
2023/09/12 00:18:34;;;;;;;3.97;3.67;;;22.50;99.90;;;;;;2074408;28;20041;-71
2023/09/12 00:19:35;;;;;;;5.28;3.30;;;22.50;99.90;;;;;;2077010;28;20457;-71
2023/09/12 00:20:35;;;;;;;4.10;3.28;;;22.50;99.90;;;;;;2075422;28;20100;-71
2023/09/12 00:21:36;;;;;;;3.33;3.03;;;22.50;99.90;;;;;;2077124;28;20080;-71
2023/09/12 00:22:37;;;;;;;3.42;3.13;;;22.50;99.90;;;;;;2074750;28;20083;-71
2023/09/12 00:23:37;;;;;;;3.42;3.13;;;22.50;99.90;;;;;;2075843;28;20021;-71
2023/09/12 00:24:38;;;;;;;3.55;3.25;;;22.50;99.90;;;;;;2075252;28;20048;-71
2023/09/12 00:25:38;;;;;;;4.47;3.40;;;22.50;99.90;;;;;;2075308;28;20033;-71
2023/09/12 00:26:39;;;;;;;3.42;3.13;;;22.50;99.90;;;;;;2075854;28;20615;-72
2023/09/12 00:27:39;;;;;;;3.00;2.70;;;22.50;99.90;;;;;;2075733;28;20029;-72
2023/09/12 00:28:40;;;;;;;3.28;2.97;;;22.50;99.90;;;;;;2076259;28;20080;-71
2023/09/12 00:29:40;;;;;;;3.83;3.10;;;22.50;99.90;;;;;;2076807;28;20033;-71
2023/09/12 00:30:41;;;;;;;3.10;2.80;;;22.40;99.90;;;;;;2075640;28;20117;-71
2023/09/12 00:31:41;;;;;;;3.28;2.97;;;22.50;99.90;;;;;;2075902;28;20034;-71
2023/09/12 00:32:42;;;;;;;4.03;3.00;;;22.40;99.90;;;;;;2077735;28;20025;-71
2023/09/12 00:33:42;;;;;;;3.30;3.00;;;22.50;99.90;;;;;;2075251;28;20057;-71
2023/09/12 00:34:43;;;;;;;2.90;2.70;;;22.40;99.90;;;;;;2075233;28;20445;-71
2023/09/12 00:35:44;;;;;;;4.25;2.95;;;22.50;99.90;;;;;;2075434;28;20028;-71
2023/09/12 00:36:45;;;;;;;3.42;2.65;;;22.40;99.90;;;;;;2076568;28;20022;-71
2023/09/12 00:37:45;;;;;;;4.15;2.80;;;22.40;99.90;;;;;;2075420;28;20036;-72
2023/09/12 00:38:46;;;;;;;3.33;3.13;;;22.40;99.90;;;;;;2075378;28;20025;-71
2023/09/12 00:39:47;;;;;;;3.53;3.17;;;22.40;99.90;;;;;;2076669;28;20037;-71
2023/09/12 00:40:47;;;;;;;3.25;2.83;;;22.40;99.90;;;;;;2074699;28;20028;-71
2023/09/12 00:41:48;;;;;;;4.32;3.05;;;22.40;99.90;;;;;;2075766;28;20022;-71
2023/09/12 00:42:49;;;;;;;3.58;3.28;;;22.30;99.90;;;;;;2076675;28;20030;-71
2023/09/12 00:43:49;;;;;;;2.90;2.70;;;22.30;99.90;;;;;;2074237;28;20155;-71
2023/09/12 00:44:50;;;;;;;3.92;3.20;;;22.30;99.90;;;;;;2073790;28;20036;-72
2023/09/12 00:45:50;;;;;;;4.32;3.28;;;22.30;99.90;;;;;;2075703;28;20467;-72
2023/09/12 00:46:53;;;;;;;3.97;3.17;;;22.30;99.90;;;;;;2076676;28;20075;-71
2023/09/12 00:47:53;;;;;;;3.38;3.03;;;22.30;99.90;;;;;;2076220;28;20030;-71
2023/09/12 00:48:57;;;;;;;3.33;3.03;;;22.30;99.90;;;;;;2075224;28;20033;-71
2023/09/12 00:49:58;;;;;;;3.25;3.05;;;22.30;99.90;;;;;;2074082;28;20113;-71
2023/09/12 00:51:00;;;;;;;4.13;3.00;;;22.20;99.90;;;;;;2075139;28;20374;-71
2023/09/12 00:52:01;;;;;;;3.40;3.10;;;22.20;99.90;;;;;;2076610;28;20228;-71
2023/09/12 00:53:03;;;;;;;3.22;3.03;;;22.20;99.90;;;;;;2075545;28;20500;-71
2023/09/12 00:54:04;;;;;;;3.58;3.28;;;22.20;99.90;;;;;;2074712;28;20179;-71
2023/09/12 00:55:05;;;;;;;3.72;3.22;;;22.20;99.90;;;;;;2076252;28;20148;-72
2023/09/12 00:56:06;;;;;;;3.83;3.53;;;22.20;99.90;;;;;;2075253;28;20025;-71
2023/09/12 00:57:07;;;;;;;3.58;3.28;;;22.20;99.90;;;;;;2075131;28;20033;-71
2023/09/12 00:58:08;;;;;;;5.93;3.60;;;22.20;99.90;;;;;;2074685;28;20021;-71
2023/09/12 00:59:09;;;;;;;4.10;3.53;;;22.20;99.90;;;;;;2072919;28;20036;-71
2023/09/12 01:00:12;;;;;;;4.15;3.67;;;22.20;99.90;;;;;;2075983;28;20017;-71
2023/09/12 01:01:13;;;;;;;5.38;4.25;;;22.20;99.90;;;;;;2074994;28;20446;-71
2023/09/12 01:02:14;;;;;;;5.53;5.00;;;22.10;99.90;;;;;;2075783;28;20377;-71
2023/09/12 01:03:15;;;;;;;6.55;4.90;;;22.10;99.90;;;;;;2076276;28;20033;-71
2023/09/12 01:04:16;;;;;;;4.90;4.50;;;22.10;99.90;;;;;;2075796;28;20030;-71
2023/09/12 01:05:16;;;;;;;5.28;4.72;;;22.10;99.90;;;;;;2076457;28;20057;-71
2023/09/12 01:06:21;;;;;;;6.72;4.97;;;22.10;99.90;;;;;;2072554;28;20030;-71
2023/09/12 01:07:22;;;;;;;5.85;5.25;;;22.10;99.90;;;;;;2075616;28;20026;-71
2023/09/12 01:08:22;;;;;;;6.45;5.57;;;22.10;99.90;;;;;;2076913;28;20664;-71
2023/09/12 01:09:23;;;;;;;5.78;5.25;;;22.10;99.90;;;;;;2078075;28;20053;-71
2023/09/12 01:10:24;;;;;;;5.90;5.35;;;22.10;99.90;;;;;;2078558;28;20059;-71
2023/09/12 01:11:26;;;;;;;6.57;5.75;;;22.00;99.90;;;;;;2076253;28;20029;-71
2023/09/12 01:12:27;;;;;;;6.80;5.88;;;22.00;99.90;;;;;;2077212;28;20061;-71
2023/09/12 01:13:28;;;;;;;7.93;6.30;;;22.00;99.90;;;;;;2076485;28;20022;-71
2023/09/12 01:14:30;;;;;;;8.15;6.65;;;22.00;99.90;;;;;;2075435;28;20055;-71
2023/09/12 01:15:30;;;;;;;9.93;7.20;;;22.00;99.90;;;;;;2077192;28;20041;-71
2023/09/12 01:16:31;;;;;;;7.22;6.07;;;22.00;99.90;;;;;;2075787;28;20480;-71
2023/09/12 01:17:31;;;;;;;9.32;6.97;;;22.00;99.90;;;;;;2076188;28;20032;-71
2023/09/12 01:18:33;;;;;;;7.35;6.57;;;22.00;99.90;;;;;;2075247;28;20021;-71
2023/09/12 01:19:33;;;;;;;7.55;6.80;;;21.90;99.90;;;;;;2076270;28;20018;-71
2023/09/12 01:20:35;;;;;;;6.68;6.07;;;22.00;99.90;;;;;;2075880;28;20057;-71
2023/09/12 01:21:54;;;;;;;7.75;6.95;;;21.90;99.90;;;;;;2075029;28;20084;-71
2023/09/12 01:23:08;;;;;;;8.73;7.60;;;21.90;99.90;;;;;;2075966;28;20064;-72
2023/09/12 01:24:26;;;;;;;8.73;7.63;;;21.90;99.90;;;;;;2077454;28;21332;-71
2023/09/12 01:25:37;;;;;;;9.50;7.50;;;21.90;99.90;;;;;;2078545;28;20925;-71
2023/09/12 01:27:01;;;;;;;8.05;7.35;;;21.80;99.90;;;;;;2076708;28;20025;-71
2023/09/12 01:28:05;;;;;;;8.43;7.53;;;21.90;99.90;;;;;;2074271;28;20021;-72
2023/09/12 01:29:07;;;;;;;8.68;7.70;;;21.80;99.90;;;;;;2074582;28;20045;-71
2023/09/12 01:30:09;;;;;;;7.82;7.03;;;21.80;99.90;;;;;;2076027;28;20025;-71
2023/09/12 01:31:12;;;;;;;10.65;8.95;;;21.90;99.90;;;;;;2075816;28;20040;-71
2023/09/12 01:32:16;;;;;;;10.57;9.18;;;21.80;99.90;;;;;;2077016;28;20026;-71
2023/09/12 01:33:16;;;;;;;13.55;9.60;;;21.90;99.90;;;;;;2075640;28;20021;-71
2023/09/12 01:34:17;;;;;;;9.38;8.13;;;21.90;99.90;;;;;;2076130;28;20033;-71
2023/09/12 01:35:17;;;;;;;9.43;8.05;;;21.90;99.90;;;;;;2076086;28;20022;-71
2023/09/12 01:36:18;;;;;;;10.80;9.70;;;21.90;99.90;;;;;;2075561;28;20037;-71
2023/09/12 01:37:18;;;;;;;12.57;11.27;;;21.90;99.90;;;;;;2074240;28;20393;-71
2023/09/12 01:38:19;;;;;;;22.30;11.43;;;21.90;99.90;;;;;;2076897;28;20109;-71
2023/09/12 01:39:20;;;;;;;11.65;9.93;;;21.90;99.90;;;;;;2077399;28;20468;-71
2023/09/12 01:40:31;;;;;;;14.63;12.18;;;21.90;99.90;;;;;;2074541;28;20025;-71
2023/09/12 01:41:37;;;;;;;15.27;12.35;;;22.00;99.90;;;;;;2075280;28;20032;-71
2023/09/12 01:42:43;;;;;;;14.45;12.95;;;22.00;99.90;;;;;;2075089;28;20026;-71
2023/09/12 01:43:44;;;;;;;12.85;11.60;;;22.00;99.90;;;;;;2075467;28;20022;-71
2023/09/12 01:44:46;;;;;;;14.23;12.15;;;22.00;99.90;;;;;;2076452;28;20531;-71
2023/09/12 01:45:50;;;;;;;14.05;12.63;;;21.90;99.90;;;;;;2074882;28;21408;-71
2023/09/12 01:46:53;;;;;;;12.95;11.45;;;22.00;99.90;;;;;;2076645;28;20385;-71
2023/09/12 01:47:54;;;;;;;14.95;12.38;;;22.00;99.90;;;;;;2082302;28;20033;-71
2023/09/12 01:48:56;;;;;;;14.13;12.65;;;22.00;99.90;;;;;;2082115;28;20021;-72
2023/09/12 01:49:58;;;;;;;14.88;12.18;;;22.00;99.90;;;;;;2077031;28;20526;-71
2023/09/12 01:51:00;;;;;;;14.98;12.32;;;22.00;99.90;;;;;;2075330;28;20021;-71
2023/09/12 01:52:01;;;;;;;13.40;12.00;;;21.90;99.90;;;;;;2076249;28;20045;-71
2023/09/12 01:53:03;;;;;;;13.30;11.20;;;22.00;99.90;;;;;;2075368;28;20455;-71
2023/09/12 01:54:04;;;;;;;12.30;11.07;;;22.00;99.90;;;;;;2075524;28;20025;-71
2023/09/12 01:55:08;;;;;;;14.13;11.05;;;22.00;99.90;;;;;;2075229;28;20049;-71
2023/09/12 01:56:09;;;;;;;15.73;11.20;;;22.00;99.90;;;;;;2073578;28;20028;-71
2023/09/12 01:57:10;;;;;;;12.20;11.10;;;22.00;99.90;;;;;;2074240;28;20017;-71
2023/09/12 01:58:12;;;;;;;12.32;10.77;;;21.90;99.90;;;;;;2074324;28;20030;-71
2023/09/12 01:59:13;;;;;;;13.05;11.40;;;22.00;99.90;;;;;;2074882;28;20030;-71
2023/09/12 02:00:13;;;;;;;13.48;9.85;;;22.00;99.90;;;;;;2073836;28;20112;-71
2023/09/12 02:01:14;;;;;;;12.27;11.18;;;22.00;99.90;;;;;;2078035;28;20083;-71
2023/09/12 02:02:18;;;;;;;12.00;10.80;;;22.00;99.90;;;;;;2075570;28;20400;-71
2023/09/12 02:03:19;;;;;;;12.60;11.35;;;22.00;99.90;;;;;;2076211;28;20026;-71
2023/09/12 02:04:19;;;;;;;13.35;9.65;;;22.00;99.90;;;;;;2074814;28;20182;-72
2023/09/12 02:05:22;;;;;;;12.13;10.35;;;22.00;99.90;;;;;;2076555;28;20088;-72
2023/09/12 02:06:22;;;;;;;13.02;11.50;;;22.00;99.90;;;;;;2083641;28;20029;-71
2023/09/12 02:07:23;;;;;;;11.02;9.93;;;22.10;99.90;;;;;;2075060;28;20030;-71
2023/09/12 02:08:24;;;;;;;10.55;9.50;;;22.10;99.90;;;;;;2076604;28;20071;-71
2023/09/12 02:09:25;;;;;;;12.25;9.95;;;22.10;99.90;;;;;;2078733;28;20151;-71
2023/09/12 02:10:26;;;;;;;11.77;10.57;;;22.10;99.90;;;;;;2077858;28;20063;-71
2023/09/12 02:11:27;;;;;;;11.93;9.93;;;22.10;99.90;;;;;;2074827;28;20030;-71
2023/09/12 02:12:28;;;;;;;13.00;9.65;;;22.10;99.90;;;;;;2075217;28;20025;-71
2023/09/12 02:13:28;;;;;;;11.77;10.18;;;22.10;99.90;;;;;;2076604;28;20607;-71
2023/09/12 02:14:29;;;;;;;10.77;9.50;;;22.10;99.90;;;;;;2076826;28;20045;-71
2023/09/12 02:15:29;;;;;;;12.13;10.82;;;22.10;99.90;;;;;;2075583;28;20472;-71
2023/09/12 02:16:31;;;;;;;12.70;11.00;;;22.10;99.90;;;;;;2077911;28;20029;-71
2023/09/12 02:17:32;;;;;;;11.98;10.77;;;22.10;99.90;;;;;;2075067;28;20100;-71
2023/09/12 02:18:32;;;;;;;13.82;11.35;;;22.10;99.90;;;;;;2076841;28;20026;-71
2023/09/12 02:19:33;;;;;;;12.52;11.23;;;22.10;99.90;;;;;;2076223;28;20084;-71
2023/09/12 02:20:38;;;;;;;12.40;10.85;;;22.20;99.90;;;;;;2075898;28;20030;-71
2023/09/12 02:21:39;;;;;;;13.57;10.38;;;22.10;99.90;;;;;;2083532;28;20029;-71
2023/09/12 02:22:39;;;;;;;9.63;8.70;;;22.10;99.90;;;;;;2082931;28;20026;-71
2023/09/12 02:23:40;;;;;;;11.60;10.50;;;22.10;99.90;;;;;;2074637;28;20080;-71
2023/09/12 02:24:40;;;;;;;10.80;9.70;;;22.10;99.90;;;;;;2075572;28;20040;-71
2023/09/12 02:25:41;;;;;;;10.50;9.38;;;22.20;99.90;;;;;;2074648;28;20542;-71
2023/09/12 02:26:41;;;;;;;12.63;10.40;;;22.10;99.90;;;;;;2076592;28;20034;-71
2023/09/12 02:27:42;;;;;;;14.85;12.75;;;22.20;99.90;;;;;;2077392;28;20026;-71
2023/09/12 02:28:42;;;;;;;13.02;11.75;;;22.20;99.90;;;;;;2076849;28;20030;-71
2023/09/12 02:29:43;;;;;;;12.40;11.25;;;22.20;99.90;;;;;;2077308;28;20041;-72
2023/09/12 02:30:43;;;;;;;13.50;11.75;;;22.20;99.90;;;;;;2075121;28;20025;-71
2023/09/12 02:31:44;;;;;;;12.43;10.63;;;22.10;99.90;;;;;;2076916;28;20033;-71
2023/09/12 02:32:44;;;;;;;12.40;11.02;;;22.10;99.90;;;;;;2072909;28;20060;-71
2023/09/12 02:33:45;;;;;;;12.82;11.40;;;22.10;99.90;;;;;;2075516;28;20057;-71
2023/09/12 02:34:46;;;;;;;13.00;11.70;;;22.10;99.90;;;;;;2073605;28;20041;-71
2023/09/12 02:35:46;;;;;;;12.23;11.02;;;22.10;99.90;;;;;;2075096;28;20022;-71
2023/09/12 02:36:47;;;;;;;11.70;10.52;;;22.10;99.90;;;;;;2076328;28;20570;-71
2023/09/12 02:37:47;;;;;;;14.55;11.73;;;22.10;99.90;;;;;;2075585;28;20088;-71
2023/09/12 02:38:48;;;;;;;13.60;12.13;;;22.10;99.90;;;;;;2079698;28;20028;-71
2023/09/12 02:39:48;;;;;;;12.77;11.48;;;22.00;99.90;;;;;;2079182;28;20452;-71
2023/09/12 02:40:49;;;;;;;14.40;11.63;;;22.00;99.90;;;;;;2076988;28;20026;-71
2023/09/12 02:41:49;;;;;;;13.60;12.20;;;22.00;99.90;;;;;;2077614;28;20042;-71
2023/09/12 02:42:50;;;;;;;13.38;10.48;;;22.00;99.90;;;;;;2076130;28;20041;-71
2023/09/12 02:43:51;;;;;;;12.27;10.98;;;22.00;99.90;;;;;;2085161;28;20487;-71
2023/09/12 02:44:52;;;;;;;13.93;11.13;;;22.00;99.90;;;;;;2086288;28;20451;-71
2023/09/12 02:45:52;;;;;;;12.95;11.70;;;22.00;99.90;;;;;;2076833;28;20060;-71
2023/09/12 02:46:53;;;;;;;13.50;12.20;;;22.00;99.90;;;;;;2074943;28;20390;-71
2023/09/12 02:47:54;;;;;;;13.05;11.75;;;22.00;99.90;;;;;;2076360;28;20111;-71
2023/09/12 02:48:54;;;;;;;15.93;11.70;;;22.00;99.90;;;;;;2079607;28;20146;-71
2023/09/12 02:49:55;;;;;;;14.32;12.77;;;22.00;99.90;;;;;;2079881;28;20124;-71
2023/09/12 02:50:55;;;;;;;13.27;12.00;;;22.00;99.90;;;;;;2077141;28;20036;-71
2023/09/12 02:51:56;;;;;;;13.27;11.93;;;22.00;99.90;;;;;;2076965;28;20034;-71
2023/09/12 02:52:56;;;;;;;14.25;12.32;;;22.00;99.90;;;;;;2077215;28;20021;-71
2023/09/12 02:53:57;;;;;;;14.10;12.15;;;22.00;99.90;;;;;;2077028;28;20556;-71
2023/09/12 02:54:57;;;;;;;14.70;11.77;;;22.00;99.90;;;;;;2079233;28;20049;-71
2023/09/12 02:55:58;;;;;;;14.32;12.48;;;22.00;99.90;;;;;;2078690;28;20031;-71
2023/09/12 02:56:58;;;;;;;13.57;12.02;;;22.00;99.90;;;;;;2079207;28;20029;-71
2023/09/12 02:57:59;;;;;;;16.38;13.02;;;22.00;99.90;;;;;;2079209;28;20447;-71
2023/09/12 02:59:00;;;;;;;15.18;13.60;;;22.00;99.90;;;;;;2073407;28;20029;-72
2023/09/12 03:00:00;;;;;;;15.32;13.18;;;22.00;99.90;;;;;;2078440;28;20030;-71
2023/09/12 03:01:03;;;;;;;15.23;13.35;;;22.00;99.90;;;;;;2077416;28;20030;-71
2023/09/12 03:02:03;;;;;;;14.55;13.05;;;21.90;99.90;;;;;;2076438;28;20030;-72
2023/09/12 03:03:04;;;;;;;15.15;13.52;;;21.90;99.90;;;;;;2077184;28;20096;-72
2023/09/12 03:04:04;;;;;;;14.90;13.30;;;22.00;99.90;;;;;;2078456;28;20034;-72
2023/09/12 03:05:05;;;;;;;15.57;12.10;;;22.00;99.90;;;;;;2079577;28;20056;-72
2023/09/12 03:06:06;;;;;;;15.32;13.65;;;22.00;99.90;;;;;;2080034;28;20052;-71
2023/09/12 03:07:06;;;;;;;13.73;12.32;;;21.90;99.90;;;;;;2076740;28;20243;-71
2023/09/12 03:08:07;;;;;;;14.18;12.88;;;22.00;99.90;;;;;;2077013;28;20095;-71
2023/09/12 03:09:07;;;;;;;14.27;12.63;;;21.90;99.90;;;;;;2075307;28;20038;-71
2023/09/12 03:10:08;;;;;;;16.27;12.95;;;21.90;99.90;;;;;;2075569;28;20041;-71
2023/09/12 03:11:09;;;;;;;14.95;13.25;;;21.90;99.90;;;;;;2076587;28;20044;-72
2023/09/12 03:12:10;;;;;;;11.65;10.52;;;21.90;99.90;;;;;;2077006;28;20037;-71
2023/09/12 03:13:12;;;;;;;15.82;12.85;;;21.90;99.90;;;;;;2078104;28;20479;-71
2023/09/12 03:14:12;;;;;;;13.05;11.23;;;21.90;99.90;;;;;;2075581;28;20473;-71
2023/09/12 03:15:13;;;;;;;14.05;10.82;;;21.90;99.90;;;;;;2075655;28;20402;-71
2023/09/12 03:16:14;;;;;;;14.30;12.18;;;22.00;99.90;;;;;;2077784;28;20064;-71
2023/09/12 03:17:15;;;;;;;11.32;10.23;;;22.00;99.90;;;;;;2075314;28;20076;-71
2023/09/12 03:18:15;;;;;;;12.23;11.00;;;22.00;99.90;;;;;;2076245;28;20041;-72
2023/09/12 03:19:16;;;;;;;14.07;12.68;;;22.00;99.90;;;;;;2078358;28;20021;-71
2023/09/12 03:20:16;;;;;;;13.93;12.30;;;22.00;99.90;;;;;;2075318;28;20024;-71
2023/09/12 03:21:17;;;;;;;10.80;9.73;;;22.10;99.90;;;;;;2077210;28;20025;-71
2023/09/12 03:22:17;;;;;;;12.32;10.85;;;22.10;99.90;;;;;;2076356;28;20022;-71
2023/09/12 03:23:20;;;;;;;10.75;9.75;;;22.10;99.90;;;;;;2078407;28;20112;-71
2023/09/12 03:24:23;;;;;;;14.63;11.73;;;22.10;99.90;;;;;;2075474;28;20033;-71
2023/09/12 03:25:24;;;;;;;13.40;11.10;;;22.10;99.90;;;;;;2074951;28;20048;-71
2023/09/12 03:26:24;;;;;;;13.48;12.13;;;22.10;99.90;;;;;;2077781;28;20036;-71
2023/09/12 03:27:25;;;;;;;12.95;11.63;;;22.10;99.90;;;;;;2078779;28;20384;-71
2023/09/12 03:28:25;;;;;;;14.48;12.98;;;22.10;99.90;;;;;;2078377;28;20025;-71
2023/09/12 03:29:26;;;;;;;16.17;13.38;;;22.10;99.90;;;;;;2079509;28;20033;-71
2023/09/12 03:30:27;;;;;;;14.70;11.85;;;22.10;99.90;;;;;;2075692;28;20065;-71
2023/09/12 03:31:28;;;;;;;15.25;12.25;;;22.00;99.90;;;;;;2077208;28;20034;-71
2023/09/12 03:32:29;;;;;;;16.38;13.40;;;22.00;99.90;;;;;;2078322;28;20096;-71
2023/09/12 03:33:29;;;;;;;13.65;12.27;;;22.00;99.90;;;;;;2076723;28;20111;-71
2023/09/12 03:34:30;;;;;;;14.13;11.93;;;22.00;99.90;;;;;;2078962;28;20025;-71
2023/09/12 03:35:32;;;;;;;13.88;12.27;;;22.00;99.90;;;;;;2079552;28;20029;-71
2023/09/12 03:36:33;;;;;;;14.88;11.77;;;22.00;99.90;;;;;;2079731;28;20100;-71
2023/09/12 03:37:33;;;;;;;17.00;12.35;;;22.00;99.90;;;;;;2078073;28;20480;-71
2023/09/12 03:38:35;;;;;;;14.00;12.50;;;21.90;99.90;;;;;;2076359;28;20025;-71
2023/09/12 03:39:36;;;;;;;13.60;12.07;;;21.90;99.90;;;;;;2068433;28;20032;-71
2023/09/12 03:40:36;;;;;;;14.60;13.13;;;21.90;99.90;;;;;;2077083;28;20080;-70
2023/09/12 03:41:37;;;;;;;15.15;12.90;;;21.90;99.90;;;;;;2076483;28;20049;-70
2023/09/12 03:42:37;;;;;;;15.55;13.05;;;21.90;99.90;;;;;;2077821;28;20377;-70
2023/09/12 03:43:38;;;;;;;16.33;13.70;;;21.90;99.90;;;;;;2078067;28;20040;-70
2023/09/12 03:44:38;;;;;;;16.98;13.88;;;21.90;99.90;;;;;;2076716;28;20104;-70
2023/09/12 03:45:39;;;;;;;15.35;12.85;;;21.80;99.90;;;;;;2078419;28;20088;-70
2023/09/12 03:46:39;;;;;;;15.00;13.45;;;21.90;99.90;;;;;;2080394;28;20022;-70
2023/09/12 03:47:40;;;;;;;17.75;14.52;;;21.90;99.90;;;;;;2075082;28;20068;-70
2023/09/12 03:48:40;;;;;;;17.55;14.15;;;21.90;99.90;;;;;;2075642;28;20883;-70
2023/09/12 03:49:41;;;;;;;22.13;14.18;;;21.90;99.90;;;;;;2075934;28;20021;-70
2023/09/12 03:50:41;;;;;;;16.80;14.25;;;21.80;99.90;;;;;;2074965;28;20033;-70
2023/09/12 03:51:42;;;;;;;14.70;13.20;;;21.80;99.90;;;;;;2075758;28;20540;-71
2023/09/12 03:52:42;;;;;;;16.50;13.68;;;21.80;99.90;;;;;;2081907;28;20032;-71
2023/09/12 03:53:43;;;;;;;16.23;13.70;;;21.80;99.90;;;;;;2083557;28;20499;-71
2023/09/12 03:54:44;;;;;;;18.10;13.30;;;21.80;99.90;;;;;;2076524;28;20479;-71
2023/09/12 03:55:44;;;;;;;15.00;13.48;;;21.80;99.90;;;;;;2076155;28;20021;-71
2023/09/12 03:56:45;;;;;;;15.10;13.55;;;21.80;99.90;;;;;;2075948;28;20492;-71
2023/09/12 03:57:45;;;;;;;14.45;12.52;;;21.80;99.90;;;;;;2074298;28;20064;-71
2023/09/12 03:58:46;;;;;;;14.80;13.25;;;21.80;99.90;;;;;;2074673;28;20488;-71
2023/09/12 03:59:47;;;;;;;16.88;14.38;;;21.80;99.90;;;;;;2074081;28;20042;-70
2023/09/12 04:00:48;;;;;;;13.57;11.82;;;21.80;99.90;;;;;;2075262;28;20024;-71
2023/09/12 04:01:48;;;;;;;15.60;12.73;;;21.80;99.90;;;;;;2076971;28;20025;-71
2023/09/12 04:02:49;;;;;;;20.17;15.98;;;21.80;99.90;;;;;;2077343;28;20045;-70
2023/09/12 04:03:49;;;;;;;16.58;14.82;;;21.80;99.90;;;;;;2075726;28;20428;-71
2023/09/12 04:04:51;;;;;;;17.02;13.02;;;21.80;99.90;;;;;;2077414;28;20435;-71
2023/09/12 04:05:52;;;;;;;15.23;13.70;;;21.70;99.90;;;;;;2076757;28;20111;-71
2023/09/12 04:06:52;;;;;;;15.63;14.18;;;21.70;99.90;;;;;;2077122;28;20084;-71
2023/09/12 04:07:53;;;;;;;13.73;12.32;;;21.80;99.90;;;;;;2075801;28;20112;-71
2023/09/12 04:08:53;;;;;;;14.90;12.98;;;21.80;99.90;;;;;;2075636;28;20551;-70
2023/09/12 04:09:54;;;;;;;15.95;14.23;;;21.80;99.90;;;;;;2075299;28;20041;-71
2023/09/12 04:10:55;;;;;;;15.77;14.02;;;21.80;99.90;;;;;;2076650;28;20037;-71
2023/09/12 04:11:55;;;;;;;15.93;13.18;;;21.80;99.90;;;;;;2076205;28;20075;-71
2023/09/12 04:12:56;;;;;;;18.00;13.75;;;21.80;99.90;;;;;;2077364;28;20405;-70
2023/09/12 04:13:56;;;;;;;15.50;13.95;;;21.80;99.90;;;;;;2077115;28;20032;-71
2023/09/12 04:14:57;;;;;;;15.75;14.00;;;21.80;99.90;;;;;;2075675;28;20161;-71
2023/09/12 04:15:57;;;;;;;16.92;14.35;;;21.80;99.90;;;;;;2077150;28;20026;-71
2023/09/12 04:16:58;;;;;;;18.52;15.35;;;21.80;99.90;;;;;;2075715;28;20050;-71
2023/09/12 04:17:59;;;;;;;20.35;17.05;;;21.80;99.90;;;;;;2077046;28;20035;-70
2023/09/12 04:19:00;;;;;;;19.25;17.25;;;21.80;99.90;;;;;;2075722;28;20462;-71
2023/09/12 04:20:00;;;;;;;18.73;16.42;;;21.70;99.90;;;;;;2077596;28;20041;-71
2023/09/12 04:21:01;;;;;;;20.73;17.42;;;21.70;99.90;;;;;;2076588;28;20104;-70
2023/09/12 04:22:01;;;;;;;21.08;17.60;;;21.70;99.90;;;;;;2076190;28;20113;-70
2023/09/12 04:23:02;;;;;;;21.48;18.30;;;21.70;99.90;;;;;;2077139;28;20464;-70
2023/09/12 04:24:03;;;;;;;17.70;15.90;;;21.60;99.90;;;;;;2075958;28;20040;-71
2023/09/12 04:25:04;;;;;;;19.80;17.20;;;21.60;99.90;;;;;;2075741;28;20096;-71
2023/09/12 04:26:05;;;;;;;20.00;17.90;;;21.50;99.90;;;;;;2076956;28;20053;-70
2023/09/12 04:27:05;;;;;;;19.38;17.30;;;21.50;99.90;;;;;;2076684;28;20504;-71
2023/09/12 04:28:06;;;;;;;18.80;16.83;;;21.50;99.90;;;;;;2083018;28;20033;-71
2023/09/12 04:29:06;;;;;;;18.80;17.02;;;21.40;99.90;;;;;;2076965;28;20229;-71
2023/09/12 04:30:08;;;;;;;20.35;18.27;;;21.40;99.90;;;;;;2075477;28;20468;-71
2023/09/12 04:31:08;;;;;;;19.10;17.08;;;21.30;99.90;;;;;;2076589;28;20026;-70
2023/09/12 04:32:09;;;;;;;20.50;16.70;;;21.30;99.90;;;;;;2076165;28;20041;-71
2023/09/12 04:33:09;;;;;;;18.60;16.83;;;21.30;99.90;;;;;;2075935;28;20025;-72
2023/09/12 04:34:10;;;;;;;18.05;16.15;;;21.30;99.90;;;;;;2076918;28;20334;-72
2023/09/12 04:35:10;;;;;;;19.85;17.75;;;21.30;99.90;;;;;;2077253;28;20033;-71
2023/09/12 04:36:11;;;;;;;17.77;15.95;;;21.30;99.90;;;;;;2075675;28;20013;-71
2023/09/12 04:37:11;;;;;;;17.25;15.27;;;21.20;99.90;;;;;;2076021;28;21019;-71
2023/09/12 04:38:12;;;;;;;18.30;16.48;;;21.20;99.90;;;;;;2075709;28;20041;-71
2023/09/12 04:39:13;;;;;;;19.38;16.88;;;21.20;99.90;;;;;;2076015;28;20109;-71
2023/09/12 04:40:13;;;;;;;18.50;16.60;;;21.20;99.90;;;;;;2075240;28;20033;-71
2023/09/12 04:41:16;;;;;;;18.67;16.77;;;21.20;99.90;;;;;;2076906;28;20036;-71
2023/09/12 04:42:17;;;;;;;19.92;16.83;;;21.20;99.90;;;;;;2075500;28;20380;-71
2023/09/12 04:43:17;;;;;;;18.70;16.27;;;21.20;99.90;;;;;;2076294;28;20025;-71
2023/09/12 04:44:18;;;;;;;17.45;15.65;;;21.20;99.90;;;;;;2075564;28;20033;-72
2023/09/12 04:45:18;;;;;;;24.73;16.45;;;21.20;99.90;;;;;;2076201;28;20075;-71
2023/09/12 04:46:19;;;;;;;19.17;16.23;;;21.20;99.90;;;;;;2082795;28;20446;-72
2023/09/12 04:47:21;;;;;;;17.45;15.65;;;21.10;99.90;;;;;;2083249;28;20037;-72
2023/09/12 04:48:21;;;;;;;17.08;15.38;;;21.10;99.90;;;;;;2076460;28;20079;-72
2023/09/12 04:49:22;;;;;;;18.38;16.20;;;21.10;99.90;;;;;;2077001;28;20029;-72
2023/09/12 04:50:23;;;;;;;18.92;16.30;;;21.10;99.90;;;;;;2073589;28;20044;-72
2023/09/12 04:51:23;;;;;;;17.90;15.05;;;21.10;99.90;;;;;;2076668;28;20034;-72
2023/09/12 04:52:24;;;;;;;17.80;15.93;;;21.10;99.90;;;;;;2074961;28;20084;-72
2023/09/12 04:53:24;;;;;;;17.10;15.20;;;21.00;99.90;;;;;;2074020;28;20040;-72
2023/09/12 04:54:25;;;;;;;19.83;16.38;;;21.00;99.90;;;;;;2076254;28;20021;-72
2023/09/12 04:55:25;;;;;;;18.15;16.00;;;21.00;99.90;;;;;;2065818;28;20781;-72
2023/09/12 04:56:26;;;;;;;18.67;15.00;;;21.00;99.90;;;;;;2076844;28;20029;-72
2023/09/12 04:57:30;;;;;;;17.30;15.57;;;21.00;99.90;;;;;;2077226;28;20036;-72
2023/09/12 04:58:31;;;;;;;17.60;15.85;;;21.00;99.90;;;;;;2077787;28;20108;-74
2023/09/12 04:59:31;;;;;;;19.33;16.40;;;21.00;99.90;;;;;;2076321;28;20079;-72
2023/09/12 05:00:33;;;;;;;20.88;15.63;;;21.00;99.90;;;;;;2074508;28;20089;-72
2023/09/12 05:01:33;;;;;;;15.38;13.77;;;21.00;99.90;;;;;;2074350;28;20367;-72
2023/09/12 05:02:34;;;;;;;17.90;16.13;;;20.90;99.90;;;;;;2075688;28;20044;-72
2023/09/12 05:03:35;;;;;;;17.73;15.68;;;20.90;99.90;;;;;;2076927;28;20039;-71
2023/09/12 05:04:35;;;;;;;15.60;13.65;;;21.00;99.90;;;;;;2077301;28;20021;-71
2023/09/12 05:05:36;;;;;;;16.60;14.90;;;20.90;99.90;;;;;;2074389;28;20029;-71
2023/09/12 05:06:36;;;;;;;17.02;15.27;;;20.90;99.90;;;;;;2076403;28;20029;-71
2023/09/12 05:07:37;;;;;;;16.85;14.88;;;20.90;99.90;;;;;;2074883;28;20507;-71
2023/09/12 05:08:38;;;;;;;18.88;15.05;;;20.90;99.90;;;;;;2072205;28;20060;-72
2023/09/12 05:09:38;;;;;;;16.10;14.25;;;20.90;99.90;;;;;;2075037;28;20026;-72
2023/09/12 05:10:39;;;;;;;16.58;13.82;;;20.90;99.90;;;;;;2074690;28;20112;-71
2023/09/12 05:11:39;;;;;;;15.60;14.07;;;20.90;99.90;;;;;;2076182;28;20538;-72
2023/09/12 05:12:40;;;;;;;15.75;13.27;;;20.90;99.90;;;;;;2083420;28;20025;-72